<gpx creator="Cyclotour.ca" version="1.1" xmlns:gpsies="http://www.gpsies.com/GPX/1/0" xmlns:xsi="http://www.w3.org/2001/XMLSchema-instance" xmlns="http://www.topografix.com/GPX/1/1" xsi:schemaLocation="http://www.topografix.com/GPX/1/1 http://www.topografix.com/GPX/1/1/gpx.xsd http://www.gpsies.com/GPX/1/0 http://www.gpsies.com/gpsies.xsd">
<trk>
<name>MCC Trois-Rivières, Yamachiche, Louiseville (2018) </name>
<trkseg>
<trkpt lat="46.290240000" lon="-72.672710000">
<ele>0</ele>
<time>2026-09-04T07:15:21Z</time>
</trkpt>
<trkpt lat="46.289610000" lon="-72.673650000">
<ele>0</ele>
<time>2026-09-04T07:15:22Z</time>
</trkpt>
<trkpt lat="46.289200000" lon="-72.674260000">
<ele>0</ele>
<time>2026-09-04T07:15:23Z</time>
</trkpt>
<trkpt lat="46.289080000" lon="-72.674480000">
<ele>0</ele>
<time>2026-09-04T07:15:24Z</time>
</trkpt>
<trkpt lat="46.288340000" lon="-72.676530000">
<ele>0</ele>
<time>2026-09-04T07:15:25Z</time>
</trkpt>
<trkpt lat="46.287940000" lon="-72.677810000">
<ele>0</ele>
<time>2026-09-04T07:15:26Z</time>
</trkpt>
<trkpt lat="46.287810000" lon="-72.678450000">
<ele>0</ele>
<time>2026-09-04T07:15:27Z</time>
</trkpt>
<trkpt lat="46.287760000" lon="-72.678880000">
<ele>0</ele>
<time>2026-09-04T07:15:28Z</time>
</trkpt>
<trkpt lat="46.287660000" lon="-72.680010000">
<ele>0</ele>
<time>2026-09-04T07:15:29Z</time>
</trkpt>
<trkpt lat="46.287570000" lon="-72.680520000">
<ele>0</ele>
<time>2026-09-04T07:15:30Z</time>
</trkpt>
<trkpt lat="46.287330000" lon="-72.681430000">
<ele>0</ele>
<time>2026-09-04T07:15:31Z</time>
</trkpt>
<trkpt lat="46.287330000" lon="-72.681430000">
<ele>0</ele>
<time>2026-09-04T07:15:32Z</time>
</trkpt>
<trkpt lat="46.287150000" lon="-72.682120000">
<ele>0</ele>
<time>2026-09-04T07:15:33Z</time>
</trkpt>
<trkpt lat="46.287320000" lon="-72.682270000">
<ele>0</ele>
<time>2026-09-04T07:15:34Z</time>
</trkpt>
<trkpt lat="46.287580000" lon="-72.682500000">
<ele>0</ele>
<time>2026-09-04T07:15:35Z</time>
</trkpt>
<trkpt lat="46.287840000" lon="-72.682820000">
<ele>0</ele>
<time>2026-09-04T07:15:36Z</time>
</trkpt>
<trkpt lat="46.288440000" lon="-72.684000000">
<ele>0</ele>
<time>2026-09-04T07:15:37Z</time>
</trkpt>
<trkpt lat="46.288440000" lon="-72.684000000">
<ele>0</ele>
<time>2026-09-04T07:15:38Z</time>
</trkpt>
<trkpt lat="46.289390000" lon="-72.685910000">
<ele>0</ele>
<time>2026-09-04T07:15:39Z</time>
</trkpt>
<trkpt lat="46.289890000" lon="-72.686960000">
<ele>0</ele>
<time>2026-09-04T07:15:40Z</time>
</trkpt>
<trkpt lat="46.290390000" lon="-72.687920000">
<ele>0</ele>
<time>2026-09-04T07:15:41Z</time>
</trkpt>
<trkpt lat="46.290600000" lon="-72.688280000">
<ele>0</ele>
<time>2026-09-04T07:15:42Z</time>
</trkpt>
<trkpt lat="46.290970000" lon="-72.688750000">
<ele>0</ele>
<time>2026-09-04T07:15:43Z</time>
</trkpt>
<trkpt lat="46.291250000" lon="-72.689000000">
<ele>0</ele>
<time>2026-09-04T07:15:44Z</time>
</trkpt>
<trkpt lat="46.291550000" lon="-72.689190000">
<ele>0</ele>
<time>2026-09-04T07:15:45Z</time>
</trkpt>
<trkpt lat="46.291820000" lon="-72.689320000">
<ele>0</ele>
<time>2026-09-04T07:15:46Z</time>
</trkpt>
<trkpt lat="46.295550000" lon="-72.690480000">
<ele>0</ele>
<time>2026-09-04T07:15:47Z</time>
</trkpt>
<trkpt lat="46.296780000" lon="-72.690850000">
<ele>0</ele>
<time>2026-09-04T07:15:48Z</time>
</trkpt>
<trkpt lat="46.297260000" lon="-72.690940000">
<ele>0</ele>
<time>2026-09-04T07:15:49Z</time>
</trkpt>
<trkpt lat="46.297910000" lon="-72.691020000">
<ele>0</ele>
<time>2026-09-04T07:15:50Z</time>
</trkpt>
<trkpt lat="46.299170000" lon="-72.691120000">
<ele>0</ele>
<time>2026-09-04T07:15:51Z</time>
</trkpt>
<trkpt lat="46.299530000" lon="-72.691140000">
<ele>0</ele>
<time>2026-09-04T07:15:52Z</time>
</trkpt>
<trkpt lat="46.300040000" lon="-72.691190000">
<ele>0</ele>
<time>2026-09-04T07:15:53Z</time>
</trkpt>
<trkpt lat="46.301280000" lon="-72.691390000">
<ele>0</ele>
<time>2026-09-04T07:15:54Z</time>
</trkpt>
<trkpt lat="46.301760000" lon="-72.691480000">
<ele>0</ele>
<time>2026-09-04T07:15:55Z</time>
</trkpt>
<trkpt lat="46.303730000" lon="-72.691930000">
<ele>0</ele>
<time>2026-09-04T07:15:56Z</time>
</trkpt>
<trkpt lat="46.304320000" lon="-72.692070000">
<ele>0</ele>
<time>2026-09-04T07:15:57Z</time>
</trkpt>
<trkpt lat="46.304250000" lon="-72.692230000">
<ele>0</ele>
<time>2026-09-04T07:15:58Z</time>
</trkpt>
<trkpt lat="46.304200000" lon="-72.692660000">
<ele>0</ele>
<time>2026-09-04T07:15:59Z</time>
</trkpt>
<trkpt lat="46.304200000" lon="-72.692700000">
<ele>0</ele>
<time>2026-09-04T07:16:00Z</time>
</trkpt>
<trkpt lat="46.304200000" lon="-72.692700000">
<ele>0</ele>
<time>2026-09-04T07:16:01Z</time>
</trkpt>
<trkpt lat="46.304200000" lon="-72.693120000">
<ele>0</ele>
<time>2026-09-04T07:16:02Z</time>
</trkpt>
<trkpt lat="46.304240000" lon="-72.693390000">
<ele>0</ele>
<time>2026-09-04T07:16:03Z</time>
</trkpt>
<trkpt lat="46.304300000" lon="-72.693590000">
<ele>0</ele>
<time>2026-09-04T07:16:04Z</time>
</trkpt>
<trkpt lat="46.304920000" lon="-72.695180000">
<ele>0</ele>
<time>2026-09-04T07:16:05Z</time>
</trkpt>
<trkpt lat="46.305440000" lon="-72.696710000">
<ele>0</ele>
<time>2026-09-04T07:16:06Z</time>
</trkpt>
<trkpt lat="46.306630000" lon="-72.700210000">
<ele>0</ele>
<time>2026-09-04T07:16:07Z</time>
</trkpt>
<trkpt lat="46.306960000" lon="-72.701180000">
<ele>0</ele>
<time>2026-09-04T07:16:08Z</time>
</trkpt>
<trkpt lat="46.307030000" lon="-72.701420000">
<ele>0</ele>
<time>2026-09-04T07:16:09Z</time>
</trkpt>
<trkpt lat="46.307050000" lon="-72.701620000">
<ele>0</ele>
<time>2026-09-04T07:16:10Z</time>
</trkpt>
<trkpt lat="46.307040000" lon="-72.701810000">
<ele>0</ele>
<time>2026-09-04T07:16:11Z</time>
</trkpt>
<trkpt lat="46.306890000" lon="-72.702310000">
<ele>0</ele>
<time>2026-09-04T07:16:12Z</time>
</trkpt>
<trkpt lat="46.306050000" lon="-72.704210000">
<ele>0</ele>
<time>2026-09-04T07:16:13Z</time>
</trkpt>
<trkpt lat="46.304810000" lon="-72.707280000">
<ele>0</ele>
<time>2026-09-04T07:16:14Z</time>
</trkpt>
<trkpt lat="46.303070000" lon="-72.711630000">
<ele>0</ele>
<time>2026-09-04T07:16:15Z</time>
</trkpt>
<trkpt lat="46.302300000" lon="-72.713450000">
<ele>0</ele>
<time>2026-09-04T07:16:16Z</time>
</trkpt>
<trkpt lat="46.302040000" lon="-72.714180000">
<ele>0</ele>
<time>2026-09-04T07:16:17Z</time>
</trkpt>
<trkpt lat="46.302000000" lon="-72.714380000">
<ele>0</ele>
<time>2026-09-04T07:16:18Z</time>
</trkpt>
<trkpt lat="46.301960000" lon="-72.714780000">
<ele>0</ele>
<time>2026-09-04T07:16:19Z</time>
</trkpt>
<trkpt lat="46.301980000" lon="-72.715170000">
<ele>0</ele>
<time>2026-09-04T07:16:20Z</time>
</trkpt>
<trkpt lat="46.302260000" lon="-72.717270000">
<ele>0</ele>
<time>2026-09-04T07:16:21Z</time>
</trkpt>
<trkpt lat="46.302360000" lon="-72.718260000">
<ele>0</ele>
<time>2026-09-04T07:16:22Z</time>
</trkpt>
<trkpt lat="46.302570000" lon="-72.719730000">
<ele>0</ele>
<time>2026-09-04T07:16:23Z</time>
</trkpt>
<trkpt lat="46.302590000" lon="-72.720170000">
<ele>0</ele>
<time>2026-09-04T07:16:24Z</time>
</trkpt>
<trkpt lat="46.302580000" lon="-72.720610000">
<ele>0</ele>
<time>2026-09-04T07:16:25Z</time>
</trkpt>
<trkpt lat="46.302470000" lon="-72.721380000">
<ele>0</ele>
<time>2026-09-04T07:16:26Z</time>
</trkpt>
<trkpt lat="46.302210000" lon="-72.722640000">
<ele>0</ele>
<time>2026-09-04T07:16:27Z</time>
</trkpt>
<trkpt lat="46.302010000" lon="-72.723430000">
<ele>0</ele>
<time>2026-09-04T07:16:28Z</time>
</trkpt>
<trkpt lat="46.301880000" lon="-72.723860000">
<ele>0</ele>
<time>2026-09-04T07:16:29Z</time>
</trkpt>
<trkpt lat="46.300780000" lon="-72.726740000">
<ele>0</ele>
<time>2026-09-04T07:16:30Z</time>
</trkpt>
<trkpt lat="46.301550000" lon="-72.727380000">
<ele>0</ele>
<time>2026-09-04T07:16:31Z</time>
</trkpt>
<trkpt lat="46.301550000" lon="-72.727380000">
<ele>0</ele>
<time>2026-09-04T07:16:32Z</time>
</trkpt>
<trkpt lat="46.302010000" lon="-72.727760000">
<ele>0</ele>
<time>2026-09-04T07:16:33Z</time>
</trkpt>
<trkpt lat="46.302030000" lon="-72.727810000">
<ele>0</ele>
<time>2026-09-04T07:16:34Z</time>
</trkpt>
<trkpt lat="46.302160000" lon="-72.727990000">
<ele>0</ele>
<time>2026-09-04T07:16:35Z</time>
</trkpt>
<trkpt lat="46.302230000" lon="-72.728160000">
<ele>0</ele>
<time>2026-09-04T07:16:36Z</time>
</trkpt>
<trkpt lat="46.302320000" lon="-72.728640000">
<ele>0</ele>
<time>2026-09-04T07:16:37Z</time>
</trkpt>
<trkpt lat="46.302430000" lon="-72.729750000">
<ele>0</ele>
<time>2026-09-04T07:16:38Z</time>
</trkpt>
<trkpt lat="46.302600000" lon="-72.730890000">
<ele>0</ele>
<time>2026-09-04T07:16:39Z</time>
</trkpt>
<trkpt lat="46.302700000" lon="-72.732010000">
<ele>0</ele>
<time>2026-09-04T07:16:40Z</time>
</trkpt>
<trkpt lat="46.302700000" lon="-72.732010000">
<ele>0</ele>
<time>2026-09-04T07:16:41Z</time>
</trkpt>
<trkpt lat="46.302740000" lon="-72.732610000">
<ele>0</ele>
<time>2026-09-04T07:16:42Z</time>
</trkpt>
<trkpt lat="46.302740000" lon="-72.733800000">
<ele>0</ele>
<time>2026-09-04T07:16:43Z</time>
</trkpt>
<trkpt lat="46.302750000" lon="-72.736120000">
<ele>0</ele>
<time>2026-09-04T07:16:44Z</time>
</trkpt>
<trkpt lat="46.302860000" lon="-72.737290000">
<ele>0</ele>
<time>2026-09-04T07:16:45Z</time>
</trkpt>
<trkpt lat="46.303000000" lon="-72.739290000">
<ele>0</ele>
<time>2026-09-04T07:16:46Z</time>
</trkpt>
<trkpt lat="46.302980000" lon="-72.739750000">
<ele>0</ele>
<time>2026-09-04T07:16:47Z</time>
</trkpt>
<trkpt lat="46.302900000" lon="-72.740110000">
<ele>0</ele>
<time>2026-09-04T07:16:48Z</time>
</trkpt>
<trkpt lat="46.302660000" lon="-72.740630000">
<ele>0</ele>
<time>2026-09-04T07:16:49Z</time>
</trkpt>
<trkpt lat="46.302450000" lon="-72.741010000">
<ele>0</ele>
<time>2026-09-04T07:16:50Z</time>
</trkpt>
<trkpt lat="46.302120000" lon="-72.741480000">
<ele>0</ele>
<time>2026-09-04T07:16:51Z</time>
</trkpt>
<trkpt lat="46.301650000" lon="-72.742100000">
<ele>0</ele>
<time>2026-09-04T07:16:52Z</time>
</trkpt>
<trkpt lat="46.301320000" lon="-72.742640000">
<ele>0</ele>
<time>2026-09-04T07:16:53Z</time>
</trkpt>
<trkpt lat="46.300890000" lon="-72.743330000">
<ele>0</ele>
<time>2026-09-04T07:16:54Z</time>
</trkpt>
<trkpt lat="46.300520000" lon="-72.743860000">
<ele>0</ele>
<time>2026-09-04T07:16:55Z</time>
</trkpt>
<trkpt lat="46.300410000" lon="-72.744060000">
<ele>0</ele>
<time>2026-09-04T07:16:56Z</time>
</trkpt>
<trkpt lat="46.300330000" lon="-72.744360000">
<ele>0</ele>
<time>2026-09-04T07:16:57Z</time>
</trkpt>
<trkpt lat="46.300340000" lon="-72.744700000">
<ele>0</ele>
<time>2026-09-04T07:16:58Z</time>
</trkpt>
<trkpt lat="46.300440000" lon="-72.745650000">
<ele>0</ele>
<time>2026-09-04T07:16:59Z</time>
</trkpt>
<trkpt lat="46.300500000" lon="-72.746400000">
<ele>0</ele>
<time>2026-09-04T07:17:00Z</time>
</trkpt>
<trkpt lat="46.300420000" lon="-72.746600000">
<ele>0</ele>
<time>2026-09-04T07:17:01Z</time>
</trkpt>
<trkpt lat="46.300110000" lon="-72.747500000">
<ele>0</ele>
<time>2026-09-04T07:17:02Z</time>
</trkpt>
<trkpt lat="46.300070000" lon="-72.747600000">
<ele>0</ele>
<time>2026-09-04T07:17:03Z</time>
</trkpt>
<trkpt lat="46.300070000" lon="-72.747600000">
<ele>0</ele>
<time>2026-09-04T07:17:04Z</time>
</trkpt>
<trkpt lat="46.299690000" lon="-72.748480000">
<ele>0</ele>
<time>2026-09-04T07:17:05Z</time>
</trkpt>
<trkpt lat="46.299530000" lon="-72.749180000">
<ele>0</ele>
<time>2026-09-04T07:17:06Z</time>
</trkpt>
<trkpt lat="46.299210000" lon="-72.749980000">
<ele>0</ele>
<time>2026-09-04T07:17:07Z</time>
</trkpt>
<trkpt lat="46.298860000" lon="-72.750690000">
<ele>0</ele>
<time>2026-09-04T07:17:08Z</time>
</trkpt>
<trkpt lat="46.298170000" lon="-72.751750000">
<ele>0</ele>
<time>2026-09-04T07:17:09Z</time>
</trkpt>
<trkpt lat="46.297140000" lon="-72.753150000">
<ele>0</ele>
<time>2026-09-04T07:17:10Z</time>
</trkpt>
<trkpt lat="46.296940000" lon="-72.753200000">
<ele>0</ele>
<time>2026-09-04T07:17:11Z</time>
</trkpt>
<trkpt lat="46.296740000" lon="-72.753680000">
<ele>0</ele>
<time>2026-09-04T07:17:12Z</time>
</trkpt>
<trkpt lat="46.296390000" lon="-72.754130000">
<ele>0</ele>
<time>2026-09-04T07:17:13Z</time>
</trkpt>
<trkpt lat="46.296350000" lon="-72.754160000">
<ele>0</ele>
<time>2026-09-04T07:17:14Z</time>
</trkpt>
<trkpt lat="46.296220000" lon="-72.754830000">
<ele>0</ele>
<time>2026-09-04T07:17:15Z</time>
</trkpt>
<trkpt lat="46.296170000" lon="-72.755060000">
<ele>0</ele>
<time>2026-09-04T07:17:16Z</time>
</trkpt>
<trkpt lat="46.296170000" lon="-72.755060000">
<ele>0</ele>
<time>2026-09-04T07:17:17Z</time>
</trkpt>
<trkpt lat="46.294500000" lon="-72.763780000">
<ele>0</ele>
<time>2026-09-04T07:17:18Z</time>
</trkpt>
<trkpt lat="46.294290000" lon="-72.764850000">
<ele>0</ele>
<time>2026-09-04T07:17:19Z</time>
</trkpt>
<trkpt lat="46.294040000" lon="-72.765960000">
<ele>0</ele>
<time>2026-09-04T07:17:20Z</time>
</trkpt>
<trkpt lat="46.293810000" lon="-72.766840000">
<ele>0</ele>
<time>2026-09-04T07:17:21Z</time>
</trkpt>
<trkpt lat="46.293590000" lon="-72.767560000">
<ele>0</ele>
<time>2026-09-04T07:17:22Z</time>
</trkpt>
<trkpt lat="46.292920000" lon="-72.769690000">
<ele>0</ele>
<time>2026-09-04T07:17:23Z</time>
</trkpt>
<trkpt lat="46.292080000" lon="-72.772340000">
<ele>0</ele>
<time>2026-09-04T07:17:24Z</time>
</trkpt>
<trkpt lat="46.291790000" lon="-72.773280000">
<ele>0</ele>
<time>2026-09-04T07:17:25Z</time>
</trkpt>
<trkpt lat="46.291650000" lon="-72.773810000">
<ele>0</ele>
<time>2026-09-04T07:17:26Z</time>
</trkpt>
<trkpt lat="46.291530000" lon="-72.774280000">
<ele>0</ele>
<time>2026-09-04T07:17:27Z</time>
</trkpt>
<trkpt lat="46.291400000" lon="-72.774930000">
<ele>0</ele>
<time>2026-09-04T07:17:28Z</time>
</trkpt>
<trkpt lat="46.291320000" lon="-72.775490000">
<ele>0</ele>
<time>2026-09-04T07:17:29Z</time>
</trkpt>
<trkpt lat="46.291260000" lon="-72.776120000">
<ele>0</ele>
<time>2026-09-04T07:17:30Z</time>
</trkpt>
<trkpt lat="46.291230000" lon="-72.776900000">
<ele>0</ele>
<time>2026-09-04T07:17:31Z</time>
</trkpt>
<trkpt lat="46.291240000" lon="-72.777720000">
<ele>0</ele>
<time>2026-09-04T07:17:32Z</time>
</trkpt>
<trkpt lat="46.291430000" lon="-72.783890000">
<ele>0</ele>
<time>2026-09-04T07:17:33Z</time>
</trkpt>
<trkpt lat="46.291630000" lon="-72.790170000">
<ele>0</ele>
<time>2026-09-04T07:17:34Z</time>
</trkpt>
<trkpt lat="46.291630000" lon="-72.791680000">
<ele>0</ele>
<time>2026-09-04T07:17:35Z</time>
</trkpt>
<trkpt lat="46.291560000" lon="-72.792760000">
<ele>0</ele>
<time>2026-09-04T07:17:36Z</time>
</trkpt>
<trkpt lat="46.291370000" lon="-72.794360000">
<ele>0</ele>
<time>2026-09-04T07:17:37Z</time>
</trkpt>
<trkpt lat="46.291150000" lon="-72.795930000">
<ele>0</ele>
<time>2026-09-04T07:17:38Z</time>
</trkpt>
<trkpt lat="46.290480000" lon="-72.801050000">
<ele>0</ele>
<time>2026-09-04T07:17:39Z</time>
</trkpt>
<trkpt lat="46.290120000" lon="-72.803870000">
<ele>0</ele>
<time>2026-09-04T07:17:40Z</time>
</trkpt>
<trkpt lat="46.289400000" lon="-72.809210000">
<ele>0</ele>
<time>2026-09-04T07:17:41Z</time>
</trkpt>
<trkpt lat="46.288400000" lon="-72.816690000">
<ele>0</ele>
<time>2026-09-04T07:17:42Z</time>
</trkpt>
<trkpt lat="46.288090000" lon="-72.818970000">
<ele>0</ele>
<time>2026-09-04T07:17:43Z</time>
</trkpt>
<trkpt lat="46.287940000" lon="-72.819920000">
<ele>0</ele>
<time>2026-09-04T07:17:44Z</time>
</trkpt>
<trkpt lat="46.287700000" lon="-72.820790000">
<ele>0</ele>
<time>2026-09-04T07:17:45Z</time>
</trkpt>
<trkpt lat="46.287550000" lon="-72.821250000">
<ele>0</ele>
<time>2026-09-04T07:17:46Z</time>
</trkpt>
<trkpt lat="46.287360000" lon="-72.821720000">
<ele>0</ele>
<time>2026-09-04T07:17:47Z</time>
</trkpt>
<trkpt lat="46.287150000" lon="-72.822200000">
<ele>0</ele>
<time>2026-09-04T07:17:48Z</time>
</trkpt>
<trkpt lat="46.285180000" lon="-72.825750000">
<ele>0</ele>
<time>2026-09-04T07:17:49Z</time>
</trkpt>
<trkpt lat="46.283560000" lon="-72.828560000">
<ele>0</ele>
<time>2026-09-04T07:17:50Z</time>
</trkpt>
<trkpt lat="46.283080000" lon="-72.829490000">
<ele>0</ele>
<time>2026-09-04T07:17:51Z</time>
</trkpt>
<trkpt lat="46.282530000" lon="-72.830480000">
<ele>0</ele>
<time>2026-09-04T07:17:52Z</time>
</trkpt>
<trkpt lat="46.282030000" lon="-72.831340000">
<ele>0</ele>
<time>2026-09-04T07:17:53Z</time>
</trkpt>
<trkpt lat="46.281830000" lon="-72.831730000">
<ele>0</ele>
<time>2026-09-04T07:17:54Z</time>
</trkpt>
<trkpt lat="46.281670000" lon="-72.832130000">
<ele>0</ele>
<time>2026-09-04T07:17:55Z</time>
</trkpt>
<trkpt lat="46.281670000" lon="-72.832130000">
<ele>0</ele>
<time>2026-09-04T07:17:56Z</time>
</trkpt>
<trkpt lat="46.280350000" lon="-72.835680000">
<ele>0</ele>
<time>2026-09-04T07:17:57Z</time>
</trkpt>
<trkpt lat="46.279460000" lon="-72.838100000">
<ele>0</ele>
<time>2026-09-04T07:17:58Z</time>
</trkpt>
<trkpt lat="46.278910000" lon="-72.839620000">
<ele>0</ele>
<time>2026-09-04T07:17:59Z</time>
</trkpt>
<trkpt lat="46.278540000" lon="-72.840810000">
<ele>0</ele>
<time>2026-09-04T07:18:00Z</time>
</trkpt>
<trkpt lat="46.277710000" lon="-72.843660000">
<ele>0</ele>
<time>2026-09-04T07:18:01Z</time>
</trkpt>
<trkpt lat="46.275670000" lon="-72.850590000">
<ele>0</ele>
<time>2026-09-04T07:18:02Z</time>
</trkpt>
<trkpt lat="46.275260000" lon="-72.851790000">
<ele>0</ele>
<time>2026-09-04T07:18:03Z</time>
</trkpt>
<trkpt lat="46.274890000" lon="-72.852750000">
<ele>0</ele>
<time>2026-09-04T07:18:04Z</time>
</trkpt>
<trkpt lat="46.274390000" lon="-72.853900000">
<ele>0</ele>
<time>2026-09-04T07:18:05Z</time>
</trkpt>
<trkpt lat="46.273600000" lon="-72.855500000">
<ele>0</ele>
<time>2026-09-04T07:18:06Z</time>
</trkpt>
<trkpt lat="46.270830000" lon="-72.860960000">
<ele>0</ele>
<time>2026-09-04T07:18:07Z</time>
</trkpt>
<trkpt lat="46.267660000" lon="-72.867160000">
<ele>0</ele>
<time>2026-09-04T07:18:08Z</time>
</trkpt>
<trkpt lat="46.265790000" lon="-72.870870000">
<ele>0</ele>
<time>2026-09-04T07:18:09Z</time>
</trkpt>
<trkpt lat="46.265110000" lon="-72.872230000">
<ele>0</ele>
<time>2026-09-04T07:18:10Z</time>
</trkpt>
<trkpt lat="46.263900000" lon="-72.874620000">
<ele>0</ele>
<time>2026-09-04T07:18:11Z</time>
</trkpt>
<trkpt lat="46.263560000" lon="-72.875340000">
<ele>0</ele>
<time>2026-09-04T07:18:12Z</time>
</trkpt>
<trkpt lat="46.263530000" lon="-72.875480000">
<ele>0</ele>
<time>2026-09-04T07:18:13Z</time>
</trkpt>
<trkpt lat="46.263230000" lon="-72.876110000">
<ele>0</ele>
<time>2026-09-04T07:18:14Z</time>
</trkpt>
<trkpt lat="46.262690000" lon="-72.877110000">
<ele>0</ele>
<time>2026-09-04T07:18:15Z</time>
</trkpt>
<trkpt lat="46.262570000" lon="-72.877390000">
<ele>0</ele>
<time>2026-09-04T07:18:16Z</time>
</trkpt>
<trkpt lat="46.262510000" lon="-72.877680000">
<ele>0</ele>
<time>2026-09-04T07:18:17Z</time>
</trkpt>
<trkpt lat="46.262540000" lon="-72.877770000">
<ele>0</ele>
<time>2026-09-04T07:18:18Z</time>
</trkpt>
<trkpt lat="46.262540000" lon="-72.877890000">
<ele>0</ele>
<time>2026-09-04T07:18:19Z</time>
</trkpt>
<trkpt lat="46.262510000" lon="-72.877970000">
<ele>0</ele>
<time>2026-09-04T07:18:20Z</time>
</trkpt>
<trkpt lat="46.262440000" lon="-72.878070000">
<ele>0</ele>
<time>2026-09-04T07:18:21Z</time>
</trkpt>
<trkpt lat="46.262400000" lon="-72.878100000">
<ele>0</ele>
<time>2026-09-04T07:18:22Z</time>
</trkpt>
<trkpt lat="46.262300000" lon="-72.878320000">
<ele>0</ele>
<time>2026-09-04T07:18:23Z</time>
</trkpt>
<trkpt lat="46.262180000" lon="-72.878760000">
<ele>0</ele>
<time>2026-09-04T07:18:24Z</time>
</trkpt>
<trkpt lat="46.262050000" lon="-72.879500000">
<ele>0</ele>
<time>2026-09-04T07:18:25Z</time>
</trkpt>
<trkpt lat="46.262000000" lon="-72.879590000">
<ele>0</ele>
<time>2026-09-04T07:18:26Z</time>
</trkpt>
<trkpt lat="46.261910000" lon="-72.880330000">
<ele>0</ele>
<time>2026-09-04T07:18:27Z</time>
</trkpt>
<trkpt lat="46.261880000" lon="-72.880980000">
<ele>0</ele>
<time>2026-09-04T07:18:28Z</time>
</trkpt>
<trkpt lat="46.261920000" lon="-72.882780000">
<ele>0</ele>
<time>2026-09-04T07:18:29Z</time>
</trkpt>
<trkpt lat="46.261960000" lon="-72.883800000">
<ele>0</ele>
<time>2026-09-04T07:18:30Z</time>
</trkpt>
<trkpt lat="46.261960000" lon="-72.883800000">
<ele>0</ele>
<time>2026-09-04T07:18:31Z</time>
</trkpt>
<trkpt lat="46.262170000" lon="-72.890160000">
<ele>0</ele>
<time>2026-09-04T07:18:32Z</time>
</trkpt>
<trkpt lat="46.262160000" lon="-72.891070000">
<ele>0</ele>
<time>2026-09-04T07:18:33Z</time>
</trkpt>
<trkpt lat="46.262140000" lon="-72.891470000">
<ele>0</ele>
<time>2026-09-04T07:18:34Z</time>
</trkpt>
<trkpt lat="46.262010000" lon="-72.892670000">
<ele>0</ele>
<time>2026-09-04T07:18:35Z</time>
</trkpt>
<trkpt lat="46.261720000" lon="-72.894980000">
<ele>0</ele>
<time>2026-09-04T07:18:36Z</time>
</trkpt>
<trkpt lat="46.261250000" lon="-72.898480000">
<ele>0</ele>
<time>2026-09-04T07:18:37Z</time>
</trkpt>
<trkpt lat="46.260970000" lon="-72.900100000">
<ele>0</ele>
<time>2026-09-04T07:18:38Z</time>
</trkpt>
<trkpt lat="46.260550000" lon="-72.901900000">
<ele>0</ele>
<time>2026-09-04T07:18:39Z</time>
</trkpt>
<trkpt lat="46.259880000" lon="-72.904720000">
<ele>0</ele>
<time>2026-09-04T07:18:40Z</time>
</trkpt>
<trkpt lat="46.259330000" lon="-72.907240000">
<ele>0</ele>
<time>2026-09-04T07:18:41Z</time>
</trkpt>
<trkpt lat="46.259140000" lon="-72.908250000">
<ele>0</ele>
<time>2026-09-04T07:18:42Z</time>
</trkpt>
<trkpt lat="46.258960000" lon="-72.909530000">
<ele>0</ele>
<time>2026-09-04T07:18:43Z</time>
</trkpt>
<trkpt lat="46.258420000" lon="-72.914420000">
<ele>0</ele>
<time>2026-09-04T07:18:44Z</time>
</trkpt>
<trkpt lat="46.258050000" lon="-72.917690000">
<ele>0</ele>
<time>2026-09-04T07:18:45Z</time>
</trkpt>
<trkpt lat="46.257210000" lon="-72.925080000">
<ele>0</ele>
<time>2026-09-04T07:18:46Z</time>
</trkpt>
<trkpt lat="46.256680000" lon="-72.929930000">
<ele>0</ele>
<time>2026-09-04T07:18:47Z</time>
</trkpt>
<trkpt lat="46.256510000" lon="-72.931620000">
<ele>0</ele>
<time>2026-09-04T07:18:48Z</time>
</trkpt>
<trkpt lat="46.256360000" lon="-72.933220000">
<ele>0</ele>
<time>2026-09-04T07:18:49Z</time>
</trkpt>
<trkpt lat="46.256240000" lon="-72.935130000">
<ele>0</ele>
<time>2026-09-04T07:18:50Z</time>
</trkpt>
<trkpt lat="46.256150000" lon="-72.937430000">
<ele>0</ele>
<time>2026-09-04T07:18:51Z</time>
</trkpt>
<trkpt lat="46.256140000" lon="-72.937800000">
<ele>0</ele>
<time>2026-09-04T07:18:52Z</time>
</trkpt>
<trkpt lat="46.256610000" lon="-72.937800000">
<ele>0</ele>
<time>2026-09-04T07:18:53Z</time>
</trkpt>
<trkpt lat="46.256840000" lon="-72.937790000">
<ele>0</ele>
<time>2026-09-04T07:18:54Z</time>
</trkpt>
<trkpt lat="46.257610000" lon="-72.937570000">
<ele>0</ele>
<time>2026-09-04T07:18:55Z</time>
</trkpt>
<trkpt lat="46.257610000" lon="-72.937570000">
<ele>0</ele>
<time>2026-09-04T07:18:56Z</time>
</trkpt>
<trkpt lat="46.259270000" lon="-72.937200000">
<ele>0</ele>
<time>2026-09-04T07:18:57Z</time>
</trkpt>
<trkpt lat="46.260310000" lon="-72.936860000">
<ele>0</ele>
<time>2026-09-04T07:18:58Z</time>
</trkpt>
<trkpt lat="46.261050000" lon="-72.936500000">
<ele>0</ele>
<time>2026-09-04T07:18:59Z</time>
</trkpt>
<trkpt lat="46.261950000" lon="-72.936160000">
<ele>0</ele>
<time>2026-09-04T07:19:00Z</time>
</trkpt>
<trkpt lat="46.262840000" lon="-72.935890000">
<ele>0</ele>
<time>2026-09-04T07:19:01Z</time>
</trkpt>
<trkpt lat="46.265110000" lon="-72.935500000">
<ele>0</ele>
<time>2026-09-04T07:19:02Z</time>
</trkpt>
<trkpt lat="46.265970000" lon="-72.935280000">
<ele>0</ele>
<time>2026-09-04T07:19:03Z</time>
</trkpt>
<trkpt lat="46.266680000" lon="-72.935000000">
<ele>0</ele>
<time>2026-09-04T07:19:04Z</time>
</trkpt>
<trkpt lat="46.268570000" lon="-72.934330000">
<ele>0</ele>
<time>2026-09-04T07:19:05Z</time>
</trkpt>
<trkpt lat="46.269160000" lon="-72.934040000">
<ele>0</ele>
<time>2026-09-04T07:19:06Z</time>
</trkpt>
<trkpt lat="46.269570000" lon="-72.933710000">
<ele>0</ele>
<time>2026-09-04T07:19:07Z</time>
</trkpt>
<trkpt lat="46.270070000" lon="-72.933120000">
<ele>0</ele>
<time>2026-09-04T07:19:08Z</time>
</trkpt>
<trkpt lat="46.271300000" lon="-72.931610000">
<ele>0</ele>
<time>2026-09-04T07:19:09Z</time>
</trkpt>
<trkpt lat="46.272330000" lon="-72.930390000">
<ele>0</ele>
<time>2026-09-04T07:19:10Z</time>
</trkpt>
<trkpt lat="46.273310000" lon="-72.929230000">
<ele>0</ele>
<time>2026-09-04T07:19:11Z</time>
</trkpt>
<trkpt lat="46.274170000" lon="-72.927850000">
<ele>0</ele>
<time>2026-09-04T07:19:12Z</time>
</trkpt>
<trkpt lat="46.274810000" lon="-72.926910000">
<ele>0</ele>
<time>2026-09-04T07:19:13Z</time>
</trkpt>
<trkpt lat="46.275710000" lon="-72.925260000">
<ele>0</ele>
<time>2026-09-04T07:19:14Z</time>
</trkpt>
<trkpt lat="46.276240000" lon="-72.924120000">
<ele>0</ele>
<time>2026-09-04T07:19:15Z</time>
</trkpt>
<trkpt lat="46.276240000" lon="-72.924120000">
<ele>0</ele>
<time>2026-09-04T07:19:16Z</time>
</trkpt>
<trkpt lat="46.276730000" lon="-72.923060000">
<ele>0</ele>
<time>2026-09-04T07:19:17Z</time>
</trkpt>
<trkpt lat="46.276960000" lon="-72.922310000">
<ele>0</ele>
<time>2026-09-04T07:19:18Z</time>
</trkpt>
<trkpt lat="46.277390000" lon="-72.920620000">
<ele>0</ele>
<time>2026-09-04T07:19:19Z</time>
</trkpt>
<trkpt lat="46.277600000" lon="-72.919360000">
<ele>0</ele>
<time>2026-09-04T07:19:20Z</time>
</trkpt>
<trkpt lat="46.277740000" lon="-72.918320000">
<ele>0</ele>
<time>2026-09-04T07:19:21Z</time>
</trkpt>
<trkpt lat="46.277830000" lon="-72.916560000">
<ele>0</ele>
<time>2026-09-04T07:19:22Z</time>
</trkpt>
<trkpt lat="46.278000000" lon="-72.915340000">
<ele>0</ele>
<time>2026-09-04T07:19:23Z</time>
</trkpt>
<trkpt lat="46.278270000" lon="-72.913680000">
<ele>0</ele>
<time>2026-09-04T07:19:24Z</time>
</trkpt>
<trkpt lat="46.278330000" lon="-72.912930000">
<ele>0</ele>
<time>2026-09-04T07:19:25Z</time>
</trkpt>
<trkpt lat="46.278420000" lon="-72.910380000">
<ele>0</ele>
<time>2026-09-04T07:19:26Z</time>
</trkpt>
<trkpt lat="46.278370000" lon="-72.909210000">
<ele>0</ele>
<time>2026-09-04T07:19:27Z</time>
</trkpt>
<trkpt lat="46.278320000" lon="-72.908100000">
<ele>0</ele>
<time>2026-09-04T07:19:28Z</time>
</trkpt>
<trkpt lat="46.278260000" lon="-72.907620000">
<ele>0</ele>
<time>2026-09-04T07:19:29Z</time>
</trkpt>
<trkpt lat="46.278050000" lon="-72.906190000">
<ele>0</ele>
<time>2026-09-04T07:19:30Z</time>
</trkpt>
<trkpt lat="46.277820000" lon="-72.905160000">
<ele>0</ele>
<time>2026-09-04T07:19:31Z</time>
</trkpt>
<trkpt lat="46.277710000" lon="-72.904810000">
<ele>0</ele>
<time>2026-09-04T07:19:32Z</time>
</trkpt>
<trkpt lat="46.277600000" lon="-72.904610000">
<ele>0</ele>
<time>2026-09-04T07:19:33Z</time>
</trkpt>
<trkpt lat="46.276620000" lon="-72.903390000">
<ele>0</ele>
<time>2026-09-04T07:19:34Z</time>
</trkpt>
<trkpt lat="46.275760000" lon="-72.902210000">
<ele>0</ele>
<time>2026-09-04T07:19:35Z</time>
</trkpt>
<trkpt lat="46.272660000" lon="-72.898160000">
<ele>0</ele>
<time>2026-09-04T07:19:36Z</time>
</trkpt>
<trkpt lat="46.272590000" lon="-72.897980000">
<ele>0</ele>
<time>2026-09-04T07:19:37Z</time>
</trkpt>
<trkpt lat="46.272510000" lon="-72.897620000">
<ele>0</ele>
<time>2026-09-04T07:19:38Z</time>
</trkpt>
<trkpt lat="46.272500000" lon="-72.896380000">
<ele>0</ele>
<time>2026-09-04T07:19:39Z</time>
</trkpt>
<trkpt lat="46.272500000" lon="-72.896380000">
<ele>0</ele>
<time>2026-09-04T07:19:40Z</time>
</trkpt>
<trkpt lat="46.272480000" lon="-72.894730000">
<ele>0</ele>
<time>2026-09-04T07:19:41Z</time>
</trkpt>
<trkpt lat="46.272560000" lon="-72.893610000">
<ele>0</ele>
<time>2026-09-04T07:19:42Z</time>
</trkpt>
<trkpt lat="46.272760000" lon="-72.892760000">
<ele>0</ele>
<time>2026-09-04T07:19:43Z</time>
</trkpt>
<trkpt lat="46.272920000" lon="-72.892330000">
<ele>0</ele>
<time>2026-09-04T07:19:44Z</time>
</trkpt>
<trkpt lat="46.273860000" lon="-72.889810000">
<ele>0</ele>
<time>2026-09-04T07:19:45Z</time>
</trkpt>
<trkpt lat="46.274160000" lon="-72.888530000">
<ele>0</ele>
<time>2026-09-04T07:19:46Z</time>
</trkpt>
<trkpt lat="46.274400000" lon="-72.886770000">
<ele>0</ele>
<time>2026-09-04T07:19:47Z</time>
</trkpt>
<trkpt lat="46.274460000" lon="-72.886480000">
<ele>0</ele>
<time>2026-09-04T07:19:48Z</time>
</trkpt>
<trkpt lat="46.274620000" lon="-72.885620000">
<ele>0</ele>
<time>2026-09-04T07:19:49Z</time>
</trkpt>
<trkpt lat="46.274750000" lon="-72.885200000">
<ele>0</ele>
<time>2026-09-04T07:19:50Z</time>
</trkpt>
<trkpt lat="46.274980000" lon="-72.884410000">
<ele>0</ele>
<time>2026-09-04T07:19:51Z</time>
</trkpt>
<trkpt lat="46.274980000" lon="-72.884410000">
<ele>0</ele>
<time>2026-09-04T07:19:52Z</time>
</trkpt>
<trkpt lat="46.275060000" lon="-72.884080000">
<ele>0</ele>
<time>2026-09-04T07:19:53Z</time>
</trkpt>
<trkpt lat="46.275790000" lon="-72.879080000">
<ele>0</ele>
<time>2026-09-04T07:19:54Z</time>
</trkpt>
<trkpt lat="46.275950000" lon="-72.878060000">
<ele>0</ele>
<time>2026-09-04T07:19:55Z</time>
</trkpt>
<trkpt lat="46.276040000" lon="-72.877640000">
<ele>0</ele>
<time>2026-09-04T07:19:56Z</time>
</trkpt>
<trkpt lat="46.276390000" lon="-72.876350000">
<ele>0</ele>
<time>2026-09-04T07:19:57Z</time>
</trkpt>
<trkpt lat="46.276470000" lon="-72.875680000">
<ele>0</ele>
<time>2026-09-04T07:19:58Z</time>
</trkpt>
<trkpt lat="46.276500000" lon="-72.874760000">
<ele>0</ele>
<time>2026-09-04T07:19:59Z</time>
</trkpt>
<trkpt lat="46.276490000" lon="-72.874510000">
<ele>0</ele>
<time>2026-09-04T07:20:00Z</time>
</trkpt>
<trkpt lat="46.277090000" lon="-72.870290000">
<ele>0</ele>
<time>2026-09-04T07:20:01Z</time>
</trkpt>
<trkpt lat="46.277350000" lon="-72.868420000">
<ele>0</ele>
<time>2026-09-04T07:20:02Z</time>
</trkpt>
<trkpt lat="46.277430000" lon="-72.867970000">
<ele>0</ele>
<time>2026-09-04T07:20:03Z</time>
</trkpt>
<trkpt lat="46.277970000" lon="-72.865780000">
<ele>0</ele>
<time>2026-09-04T07:20:04Z</time>
</trkpt>
<trkpt lat="46.278040000" lon="-72.865420000">
<ele>0</ele>
<time>2026-09-04T07:20:05Z</time>
</trkpt>
<trkpt lat="46.278100000" lon="-72.864810000">
<ele>0</ele>
<time>2026-09-04T07:20:06Z</time>
</trkpt>
<trkpt lat="46.278150000" lon="-72.864200000">
<ele>0</ele>
<time>2026-09-04T07:20:07Z</time>
</trkpt>
<trkpt lat="46.278160000" lon="-72.863560000">
<ele>0</ele>
<time>2026-09-04T07:20:08Z</time>
</trkpt>
<trkpt lat="46.278020000" lon="-72.860400000">
<ele>0</ele>
<time>2026-09-04T07:20:09Z</time>
</trkpt>
<trkpt lat="46.278090000" lon="-72.859560000">
<ele>0</ele>
<time>2026-09-04T07:20:10Z</time>
</trkpt>
<trkpt lat="46.278330000" lon="-72.857440000">
<ele>0</ele>
<time>2026-09-04T07:20:11Z</time>
</trkpt>
<trkpt lat="46.278760000" lon="-72.855730000">
<ele>0</ele>
<time>2026-09-04T07:20:12Z</time>
</trkpt>
<trkpt lat="46.280380000" lon="-72.849810000">
<ele>0</ele>
<time>2026-09-04T07:20:13Z</time>
</trkpt>
<trkpt lat="46.280380000" lon="-72.849600000">
<ele>0</ele>
<time>2026-09-04T07:20:14Z</time>
</trkpt>
<trkpt lat="46.280290000" lon="-72.849460000">
<ele>0</ele>
<time>2026-09-04T07:20:15Z</time>
</trkpt>
<trkpt lat="46.280090000" lon="-72.849150000">
<ele>0</ele>
<time>2026-09-04T07:20:16Z</time>
</trkpt>
<trkpt lat="46.279700000" lon="-72.848640000">
<ele>0</ele>
<time>2026-09-04T07:20:17Z</time>
</trkpt>
<trkpt lat="46.279590000" lon="-72.848450000">
<ele>0</ele>
<time>2026-09-04T07:20:18Z</time>
</trkpt>
<trkpt lat="46.280380000" lon="-72.843440000">
<ele>0</ele>
<time>2026-09-04T07:20:19Z</time>
</trkpt>
<trkpt lat="46.280400000" lon="-72.843100000">
<ele>0</ele>
<time>2026-09-04T07:20:20Z</time>
</trkpt>
<trkpt lat="46.280360000" lon="-72.842790000">
<ele>0</ele>
<time>2026-09-04T07:20:21Z</time>
</trkpt>
<trkpt lat="46.280300000" lon="-72.842590000">
<ele>0</ele>
<time>2026-09-04T07:20:22Z</time>
</trkpt>
<trkpt lat="46.280200000" lon="-72.842400000">
<ele>0</ele>
<time>2026-09-04T07:20:23Z</time>
</trkpt>
<trkpt lat="46.279680000" lon="-72.841670000">
<ele>0</ele>
<time>2026-09-04T07:20:24Z</time>
</trkpt>
<trkpt lat="46.279680000" lon="-72.841670000">
<ele>0</ele>
<time>2026-09-04T07:20:25Z</time>
</trkpt>
<trkpt lat="46.278680000" lon="-72.840370000">
<ele>0</ele>
<time>2026-09-04T07:20:26Z</time>
</trkpt>
<trkpt lat="46.279000000" lon="-72.839370000">
<ele>0</ele>
<time>2026-09-04T07:20:27Z</time>
</trkpt>
<trkpt lat="46.279000000" lon="-72.839370000">
<ele>0</ele>
<time>2026-09-04T07:20:28Z</time>
</trkpt>
<trkpt lat="46.280090000" lon="-72.836360000">
<ele>0</ele>
<time>2026-09-04T07:20:29Z</time>
</trkpt>
<trkpt lat="46.281340000" lon="-72.833000000">
<ele>0</ele>
<time>2026-09-04T07:20:30Z</time>
</trkpt>
<trkpt lat="46.281770000" lon="-72.831880000">
<ele>0</ele>
<time>2026-09-04T07:20:31Z</time>
</trkpt>
<trkpt lat="46.281950000" lon="-72.831490000">
<ele>0</ele>
<time>2026-09-04T07:20:32Z</time>
</trkpt>
<trkpt lat="46.282110000" lon="-72.831190000">
<ele>0</ele>
<time>2026-09-04T07:20:33Z</time>
</trkpt>
<trkpt lat="46.282360000" lon="-72.830770000">
<ele>0</ele>
<time>2026-09-04T07:20:34Z</time>
</trkpt>
<trkpt lat="46.282830000" lon="-72.829970000">
<ele>0</ele>
<time>2026-09-04T07:20:35Z</time>
</trkpt>
<trkpt lat="46.283260000" lon="-72.829130000">
<ele>0</ele>
<time>2026-09-04T07:20:36Z</time>
</trkpt>
<trkpt lat="46.284040000" lon="-72.827710000">
<ele>0</ele>
<time>2026-09-04T07:20:37Z</time>
</trkpt>
<trkpt lat="46.283610000" lon="-72.827200000">
<ele>0</ele>
<time>2026-09-04T07:20:38Z</time>
</trkpt>
<trkpt lat="46.283160000" lon="-72.826590000">
<ele>0</ele>
<time>2026-09-04T07:20:39Z</time>
</trkpt>
<trkpt lat="46.283010000" lon="-72.826350000">
<ele>0</ele>
<time>2026-09-04T07:20:40Z</time>
</trkpt>
<trkpt lat="46.283010000" lon="-72.826350000">
<ele>0</ele>
<time>2026-09-04T07:20:41Z</time>
</trkpt>
<trkpt lat="46.282590000" lon="-72.825620000">
<ele>0</ele>
<time>2026-09-04T07:20:42Z</time>
</trkpt>
<trkpt lat="46.281980000" lon="-72.824520000">
<ele>0</ele>
<time>2026-09-04T07:20:43Z</time>
</trkpt>
<trkpt lat="46.281470000" lon="-72.823550000">
<ele>0</ele>
<time>2026-09-04T07:20:44Z</time>
</trkpt>
<trkpt lat="46.280370000" lon="-72.821460000">
<ele>0</ele>
<time>2026-09-04T07:20:45Z</time>
</trkpt>
<trkpt lat="46.279390000" lon="-72.819610000">
<ele>0</ele>
<time>2026-09-04T07:20:46Z</time>
</trkpt>
<trkpt lat="46.278870000" lon="-72.818710000">
<ele>0</ele>
<time>2026-09-04T07:20:47Z</time>
</trkpt>
<trkpt lat="46.278280000" lon="-72.817840000">
<ele>0</ele>
<time>2026-09-04T07:20:48Z</time>
</trkpt>
<trkpt lat="46.275090000" lon="-72.813050000">
<ele>0</ele>
<time>2026-09-04T07:20:49Z</time>
</trkpt>
<trkpt lat="46.272660000" lon="-72.809340000">
<ele>0</ele>
<time>2026-09-04T07:20:50Z</time>
</trkpt>
<trkpt lat="46.272580000" lon="-72.809260000">
<ele>0</ele>
<time>2026-09-04T07:20:51Z</time>
</trkpt>
<trkpt lat="46.272490000" lon="-72.809130000">
<ele>0</ele>
<time>2026-09-04T07:20:52Z</time>
</trkpt>
<trkpt lat="46.272200000" lon="-72.808730000">
<ele>0</ele>
<time>2026-09-04T07:20:53Z</time>
</trkpt>
<trkpt lat="46.272030000" lon="-72.808530000">
<ele>0</ele>
<time>2026-09-04T07:20:54Z</time>
</trkpt>
<trkpt lat="46.271850000" lon="-72.808370000">
<ele>0</ele>
<time>2026-09-04T07:20:55Z</time>
</trkpt>
<trkpt lat="46.271710000" lon="-72.808290000">
<ele>0</ele>
<time>2026-09-04T07:20:56Z</time>
</trkpt>
<trkpt lat="46.271630000" lon="-72.808230000">
<ele>0</ele>
<time>2026-09-04T07:20:57Z</time>
</trkpt>
<trkpt lat="46.271650000" lon="-72.808090000">
<ele>0</ele>
<time>2026-09-04T07:20:58Z</time>
</trkpt>
<trkpt lat="46.271750000" lon="-72.807930000">
<ele>0</ele>
<time>2026-09-04T07:20:59Z</time>
</trkpt>
<trkpt lat="46.271830000" lon="-72.807670000">
<ele>0</ele>
<time>2026-09-04T07:21:00Z</time>
</trkpt>
<trkpt lat="46.271920000" lon="-72.807380000">
<ele>0</ele>
<time>2026-09-04T07:21:01Z</time>
</trkpt>
<trkpt lat="46.272030000" lon="-72.807120000">
<ele>0</ele>
<time>2026-09-04T07:21:02Z</time>
</trkpt>
<trkpt lat="46.272200000" lon="-72.806830000">
<ele>0</ele>
<time>2026-09-04T07:21:03Z</time>
</trkpt>
<trkpt lat="46.272310000" lon="-72.806700000">
<ele>0</ele>
<time>2026-09-04T07:21:04Z</time>
</trkpt>
<trkpt lat="46.272310000" lon="-72.806700000">
<ele>0</ele>
<time>2026-09-04T07:21:05Z</time>
</trkpt>
<trkpt lat="46.272520000" lon="-72.806450000">
<ele>0</ele>
<time>2026-09-04T07:21:06Z</time>
</trkpt>
<trkpt lat="46.273160000" lon="-72.805870000">
<ele>0</ele>
<time>2026-09-04T07:21:07Z</time>
</trkpt>
<trkpt lat="46.273390000" lon="-72.805630000">
<ele>0</ele>
<time>2026-09-04T07:21:08Z</time>
</trkpt>
<trkpt lat="46.273610000" lon="-72.805490000">
<ele>0</ele>
<time>2026-09-04T07:21:09Z</time>
</trkpt>
<trkpt lat="46.273840000" lon="-72.805390000">
<ele>0</ele>
<time>2026-09-04T07:21:10Z</time>
</trkpt>
<trkpt lat="46.274160000" lon="-72.805280000">
<ele>0</ele>
<time>2026-09-04T07:21:11Z</time>
</trkpt>
<trkpt lat="46.274500000" lon="-72.805170000">
<ele>0</ele>
<time>2026-09-04T07:21:12Z</time>
</trkpt>
<trkpt lat="46.274680000" lon="-72.805030000">
<ele>0</ele>
<time>2026-09-04T07:21:13Z</time>
</trkpt>
<trkpt lat="46.274860000" lon="-72.804810000">
<ele>0</ele>
<time>2026-09-04T07:21:14Z</time>
</trkpt>
<trkpt lat="46.275400000" lon="-72.804020000">
<ele>0</ele>
<time>2026-09-04T07:21:15Z</time>
</trkpt>
<trkpt lat="46.276080000" lon="-72.802990000">
<ele>0</ele>
<time>2026-09-04T07:21:16Z</time>
</trkpt>
<trkpt lat="46.276290000" lon="-72.802710000">
<ele>0</ele>
<time>2026-09-04T07:21:17Z</time>
</trkpt>
<trkpt lat="46.276520000" lon="-72.802530000">
<ele>0</ele>
<time>2026-09-04T07:21:18Z</time>
</trkpt>
<trkpt lat="46.276710000" lon="-72.802470000">
<ele>0</ele>
<time>2026-09-04T07:21:19Z</time>
</trkpt>
<trkpt lat="46.277720000" lon="-72.802420000">
<ele>0</ele>
<time>2026-09-04T07:21:20Z</time>
</trkpt>
<trkpt lat="46.277830000" lon="-72.802430000">
<ele>0</ele>
<time>2026-09-04T07:21:21Z</time>
</trkpt>
<trkpt lat="46.278000000" lon="-72.802520000">
<ele>0</ele>
<time>2026-09-04T07:21:22Z</time>
</trkpt>
<trkpt lat="46.278120000" lon="-72.802640000">
<ele>0</ele>
<time>2026-09-04T07:21:23Z</time>
</trkpt>
<trkpt lat="46.278260000" lon="-72.802840000">
<ele>0</ele>
<time>2026-09-04T07:21:24Z</time>
</trkpt>
<trkpt lat="46.278890000" lon="-72.803730000">
<ele>0</ele>
<time>2026-09-04T07:21:25Z</time>
</trkpt>
<trkpt lat="46.279110000" lon="-72.803930000">
<ele>0</ele>
<time>2026-09-04T07:21:26Z</time>
</trkpt>
<trkpt lat="46.279280000" lon="-72.804000000">
<ele>0</ele>
<time>2026-09-04T07:21:27Z</time>
</trkpt>
<trkpt lat="46.279500000" lon="-72.804010000">
<ele>0</ele>
<time>2026-09-04T07:21:28Z</time>
</trkpt>
<trkpt lat="46.279720000" lon="-72.803930000">
<ele>0</ele>
<time>2026-09-04T07:21:29Z</time>
</trkpt>
<trkpt lat="46.279880000" lon="-72.803810000">
<ele>0</ele>
<time>2026-09-04T07:21:30Z</time>
</trkpt>
<trkpt lat="46.280190000" lon="-72.803480000">
<ele>0</ele>
<time>2026-09-04T07:21:31Z</time>
</trkpt>
<trkpt lat="46.280410000" lon="-72.803340000">
<ele>0</ele>
<time>2026-09-04T07:21:32Z</time>
</trkpt>
<trkpt lat="46.280570000" lon="-72.803280000">
<ele>0</ele>
<time>2026-09-04T07:21:33Z</time>
</trkpt>
<trkpt lat="46.280780000" lon="-72.803230000">
<ele>0</ele>
<time>2026-09-04T07:21:34Z</time>
</trkpt>
<trkpt lat="46.281790000" lon="-72.803140000">
<ele>0</ele>
<time>2026-09-04T07:21:35Z</time>
</trkpt>
<trkpt lat="46.282160000" lon="-72.803090000">
<ele>0</ele>
<time>2026-09-04T07:21:36Z</time>
</trkpt>
<trkpt lat="46.282870000" lon="-72.802940000">
<ele>0</ele>
<time>2026-09-04T07:21:37Z</time>
</trkpt>
<trkpt lat="46.283390000" lon="-72.802860000">
<ele>0</ele>
<time>2026-09-04T07:21:38Z</time>
</trkpt>
<trkpt lat="46.283780000" lon="-72.802850000">
<ele>0</ele>
<time>2026-09-04T07:21:39Z</time>
</trkpt>
<trkpt lat="46.284050000" lon="-72.802810000">
<ele>0</ele>
<time>2026-09-04T07:21:40Z</time>
</trkpt>
<trkpt lat="46.284270000" lon="-72.802720000">
<ele>0</ele>
<time>2026-09-04T07:21:41Z</time>
</trkpt>
<trkpt lat="46.284660000" lon="-72.802500000">
<ele>0</ele>
<time>2026-09-04T07:21:42Z</time>
</trkpt>
<trkpt lat="46.284940000" lon="-72.802370000">
<ele>0</ele>
<time>2026-09-04T07:21:43Z</time>
</trkpt>
<trkpt lat="46.285160000" lon="-72.802310000">
<ele>0</ele>
<time>2026-09-04T07:21:44Z</time>
</trkpt>
<trkpt lat="46.285410000" lon="-72.802280000">
<ele>0</ele>
<time>2026-09-04T07:21:45Z</time>
</trkpt>
<trkpt lat="46.286130000" lon="-72.802300000">
<ele>0</ele>
<time>2026-09-04T07:21:46Z</time>
</trkpt>
<trkpt lat="46.287120000" lon="-72.802330000">
<ele>0</ele>
<time>2026-09-04T07:21:47Z</time>
</trkpt>
<trkpt lat="46.287320000" lon="-72.802360000">
<ele>0</ele>
<time>2026-09-04T07:21:48Z</time>
</trkpt>
<trkpt lat="46.287700000" lon="-72.802510000">
<ele>0</ele>
<time>2026-09-04T07:21:49Z</time>
</trkpt>
<trkpt lat="46.287860000" lon="-72.802550000">
<ele>0</ele>
<time>2026-09-04T07:21:50Z</time>
</trkpt>
<trkpt lat="46.288070000" lon="-72.802520000">
<ele>0</ele>
<time>2026-09-04T07:21:51Z</time>
</trkpt>
<trkpt lat="46.288490000" lon="-72.802360000">
<ele>0</ele>
<time>2026-09-04T07:21:52Z</time>
</trkpt>
<trkpt lat="46.288770000" lon="-72.802270000">
<ele>0</ele>
<time>2026-09-04T07:21:53Z</time>
</trkpt>
<trkpt lat="46.288990000" lon="-72.802260000">
<ele>0</ele>
<time>2026-09-04T07:21:54Z</time>
</trkpt>
<trkpt lat="46.290330000" lon="-72.802360000">
<ele>0</ele>
<time>2026-09-04T07:21:55Z</time>
</trkpt>
<trkpt lat="46.290390000" lon="-72.801780000">
<ele>0</ele>
<time>2026-09-04T07:21:56Z</time>
</trkpt>
<trkpt lat="46.290390000" lon="-72.801780000">
<ele>0</ele>
<time>2026-09-04T07:21:57Z</time>
</trkpt>
<trkpt lat="46.290640000" lon="-72.799900000">
<ele>0</ele>
<time>2026-09-04T07:21:58Z</time>
</trkpt>
<trkpt lat="46.291310000" lon="-72.799790000">
<ele>0</ele>
<time>2026-09-04T07:21:59Z</time>
</trkpt>
<trkpt lat="46.291310000" lon="-72.799790000">
<ele>0</ele>
<time>2026-09-04T07:22:00Z</time>
</trkpt>
<trkpt lat="46.291720000" lon="-72.799690000">
<ele>0</ele>
<time>2026-09-04T07:22:01Z</time>
</trkpt>
<trkpt lat="46.292130000" lon="-72.799500000">
<ele>0</ele>
<time>2026-09-04T07:22:02Z</time>
</trkpt>
<trkpt lat="46.292370000" lon="-72.799390000">
<ele>0</ele>
<time>2026-09-04T07:22:03Z</time>
</trkpt>
<trkpt lat="46.292540000" lon="-72.799350000">
<ele>0</ele>
<time>2026-09-04T07:22:04Z</time>
</trkpt>
<trkpt lat="46.292810000" lon="-72.799340000">
<ele>0</ele>
<time>2026-09-04T07:22:05Z</time>
</trkpt>
<trkpt lat="46.293060000" lon="-72.799370000">
<ele>0</ele>
<time>2026-09-04T07:22:06Z</time>
</trkpt>
<trkpt lat="46.293330000" lon="-72.799460000">
<ele>0</ele>
<time>2026-09-04T07:22:07Z</time>
</trkpt>
<trkpt lat="46.294440000" lon="-72.799870000">
<ele>0</ele>
<time>2026-09-04T07:22:08Z</time>
</trkpt>
<trkpt lat="46.294830000" lon="-72.799950000">
<ele>0</ele>
<time>2026-09-04T07:22:09Z</time>
</trkpt>
<trkpt lat="46.296360000" lon="-72.800120000">
<ele>0</ele>
<time>2026-09-04T07:22:10Z</time>
</trkpt>
<trkpt lat="46.296970000" lon="-72.800200000">
<ele>0</ele>
<time>2026-09-04T07:22:11Z</time>
</trkpt>
<trkpt lat="46.297920000" lon="-72.800540000">
<ele>0</ele>
<time>2026-09-04T07:22:12Z</time>
</trkpt>
<trkpt lat="46.298380000" lon="-72.800560000">
<ele>0</ele>
<time>2026-09-04T07:22:13Z</time>
</trkpt>
<trkpt lat="46.298810000" lon="-72.800500000">
<ele>0</ele>
<time>2026-09-04T07:22:14Z</time>
</trkpt>
<trkpt lat="46.302670000" lon="-72.799900000">
<ele>0</ele>
<time>2026-09-04T07:22:15Z</time>
</trkpt>
<trkpt lat="46.302890000" lon="-72.799890000">
<ele>0</ele>
<time>2026-09-04T07:22:16Z</time>
</trkpt>
<trkpt lat="46.304130000" lon="-72.799920000">
<ele>0</ele>
<time>2026-09-04T07:22:17Z</time>
</trkpt>
<trkpt lat="46.305030000" lon="-72.800010000">
<ele>0</ele>
<time>2026-09-04T07:22:18Z</time>
</trkpt>
<trkpt lat="46.305880000" lon="-72.800180000">
<ele>0</ele>
<time>2026-09-04T07:22:19Z</time>
</trkpt>
<trkpt lat="46.306640000" lon="-72.800330000">
<ele>0</ele>
<time>2026-09-04T07:22:20Z</time>
</trkpt>
<trkpt lat="46.306850000" lon="-72.800350000">
<ele>0</ele>
<time>2026-09-04T07:22:21Z</time>
</trkpt>
<trkpt lat="46.307050000" lon="-72.800350000">
<ele>0</ele>
<time>2026-09-04T07:22:22Z</time>
</trkpt>
<trkpt lat="46.307520000" lon="-72.800270000">
<ele>0</ele>
<time>2026-09-04T07:22:23Z</time>
</trkpt>
<trkpt lat="46.307710000" lon="-72.800230000">
<ele>0</ele>
<time>2026-09-04T07:22:24Z</time>
</trkpt>
<trkpt lat="46.308300000" lon="-72.800130000">
<ele>0</ele>
<time>2026-09-04T07:22:25Z</time>
</trkpt>
<trkpt lat="46.308570000" lon="-72.800110000">
<ele>0</ele>
<time>2026-09-04T07:22:26Z</time>
</trkpt>
<trkpt lat="46.308930000" lon="-72.800120000">
<ele>0</ele>
<time>2026-09-04T07:22:27Z</time>
</trkpt>
<trkpt lat="46.310000000" lon="-72.800210000">
<ele>0</ele>
<time>2026-09-04T07:22:28Z</time>
</trkpt>
<trkpt lat="46.310080000" lon="-72.800220000">
<ele>0</ele>
<time>2026-09-04T07:22:29Z</time>
</trkpt>
<trkpt lat="46.311070000" lon="-72.800220000">
<ele>0</ele>
<time>2026-09-04T07:22:30Z</time>
</trkpt>
<trkpt lat="46.311940000" lon="-72.800130000">
<ele>0</ele>
<time>2026-09-04T07:22:31Z</time>
</trkpt>
<trkpt lat="46.312390000" lon="-72.800050000">
<ele>0</ele>
<time>2026-09-04T07:22:32Z</time>
</trkpt>
<trkpt lat="46.312700000" lon="-72.799930000">
<ele>0</ele>
<time>2026-09-04T07:22:33Z</time>
</trkpt>
<trkpt lat="46.313090000" lon="-72.799750000">
<ele>0</ele>
<time>2026-09-04T07:22:34Z</time>
</trkpt>
<trkpt lat="46.313610000" lon="-72.799520000">
<ele>0</ele>
<time>2026-09-04T07:22:35Z</time>
</trkpt>
<trkpt lat="46.313880000" lon="-72.799460000">
<ele>0</ele>
<time>2026-09-04T07:22:36Z</time>
</trkpt>
<trkpt lat="46.314570000" lon="-72.799390000">
<ele>0</ele>
<time>2026-09-04T07:22:37Z</time>
</trkpt>
<trkpt lat="46.314820000" lon="-72.799370000">
<ele>0</ele>
<time>2026-09-04T07:22:38Z</time>
</trkpt>
<trkpt lat="46.315140000" lon="-72.799310000">
<ele>0</ele>
<time>2026-09-04T07:22:39Z</time>
</trkpt>
<trkpt lat="46.315360000" lon="-72.799230000">
<ele>0</ele>
<time>2026-09-04T07:22:40Z</time>
</trkpt>
<trkpt lat="46.315810000" lon="-72.798980000">
<ele>0</ele>
<time>2026-09-04T07:22:41Z</time>
</trkpt>
<trkpt lat="46.316830000" lon="-72.798190000">
<ele>0</ele>
<time>2026-09-04T07:22:42Z</time>
</trkpt>
<trkpt lat="46.317620000" lon="-72.797530000">
<ele>0</ele>
<time>2026-09-04T07:22:43Z</time>
</trkpt>
<trkpt lat="46.318010000" lon="-72.797250000">
<ele>0</ele>
<time>2026-09-04T07:22:44Z</time>
</trkpt>
<trkpt lat="46.318200000" lon="-72.797090000">
<ele>0</ele>
<time>2026-09-04T07:22:45Z</time>
</trkpt>
<trkpt lat="46.318830000" lon="-72.796490000">
<ele>0</ele>
<time>2026-09-04T07:22:46Z</time>
</trkpt>
<trkpt lat="46.319680000" lon="-72.795750000">
<ele>0</ele>
<time>2026-09-04T07:22:47Z</time>
</trkpt>
<trkpt lat="46.320010000" lon="-72.795480000">
<ele>0</ele>
<time>2026-09-04T07:22:48Z</time>
</trkpt>
<trkpt lat="46.320250000" lon="-72.795310000">
<ele>0</ele>
<time>2026-09-04T07:22:49Z</time>
</trkpt>
<trkpt lat="46.321460000" lon="-72.794590000">
<ele>0</ele>
<time>2026-09-04T07:22:50Z</time>
</trkpt>
<trkpt lat="46.322470000" lon="-72.794000000">
<ele>0</ele>
<time>2026-09-04T07:22:51Z</time>
</trkpt>
<trkpt lat="46.322670000" lon="-72.793910000">
<ele>0</ele>
<time>2026-09-04T07:22:52Z</time>
</trkpt>
<trkpt lat="46.323720000" lon="-72.793600000">
<ele>0</ele>
<time>2026-09-04T07:22:53Z</time>
</trkpt>
<trkpt lat="46.324160000" lon="-72.793490000">
<ele>0</ele>
<time>2026-09-04T07:22:54Z</time>
</trkpt>
<trkpt lat="46.324160000" lon="-72.793490000">
<ele>0</ele>
<time>2026-09-04T07:22:55Z</time>
</trkpt>
<trkpt lat="46.324670000" lon="-72.793370000">
<ele>0</ele>
<time>2026-09-04T07:22:56Z</time>
</trkpt>
<trkpt lat="46.325710000" lon="-72.793160000">
<ele>0</ele>
<time>2026-09-04T07:22:57Z</time>
</trkpt>
<trkpt lat="46.325890000" lon="-72.793150000">
<ele>0</ele>
<time>2026-09-04T07:22:58Z</time>
</trkpt>
<trkpt lat="46.326330000" lon="-72.793160000">
<ele>0</ele>
<time>2026-09-04T07:22:59Z</time>
</trkpt>
<trkpt lat="46.326530000" lon="-72.793210000">
<ele>0</ele>
<time>2026-09-04T07:23:00Z</time>
</trkpt>
<trkpt lat="46.326810000" lon="-72.793290000">
<ele>0</ele>
<time>2026-09-04T07:23:01Z</time>
</trkpt>
<trkpt lat="46.327620000" lon="-72.793650000">
<ele>0</ele>
<time>2026-09-04T07:23:02Z</time>
</trkpt>
<trkpt lat="46.328130000" lon="-72.792540000">
<ele>0</ele>
<time>2026-09-04T07:23:03Z</time>
</trkpt>
<trkpt lat="46.328370000" lon="-72.791910000">
<ele>0</ele>
<time>2026-09-04T07:23:04Z</time>
</trkpt>
<trkpt lat="46.328420000" lon="-72.791750000">
<ele>0</ele>
<time>2026-09-04T07:23:05Z</time>
</trkpt>
<trkpt lat="46.328420000" lon="-72.791750000">
<ele>0</ele>
<time>2026-09-04T07:23:06Z</time>
</trkpt>
<trkpt lat="46.328740000" lon="-72.790540000">
<ele>0</ele>
<time>2026-09-04T07:23:07Z</time>
</trkpt>
<trkpt lat="46.328840000" lon="-72.789770000">
<ele>0</ele>
<time>2026-09-04T07:23:08Z</time>
</trkpt>
<trkpt lat="46.328950000" lon="-72.787800000">
<ele>0</ele>
<time>2026-09-04T07:23:09Z</time>
</trkpt>
<trkpt lat="46.329040000" lon="-72.786850000">
<ele>0</ele>
<time>2026-09-04T07:23:10Z</time>
</trkpt>
<trkpt lat="46.329220000" lon="-72.786220000">
<ele>0</ele>
<time>2026-09-04T07:23:11Z</time>
</trkpt>
<trkpt lat="46.329300000" lon="-72.785800000">
<ele>0</ele>
<time>2026-09-04T07:23:12Z</time>
</trkpt>
<trkpt lat="46.329440000" lon="-72.783880000">
<ele>0</ele>
<time>2026-09-04T07:23:13Z</time>
</trkpt>
<trkpt lat="46.329570000" lon="-72.782950000">
<ele>0</ele>
<time>2026-09-04T07:23:14Z</time>
</trkpt>
<trkpt lat="46.329670000" lon="-72.781820000">
<ele>0</ele>
<time>2026-09-04T07:23:15Z</time>
</trkpt>
<trkpt lat="46.329750000" lon="-72.781270000">
<ele>0</ele>
<time>2026-09-04T07:23:16Z</time>
</trkpt>
<trkpt lat="46.329750000" lon="-72.779000000">
<ele>0</ele>
<time>2026-09-04T07:23:17Z</time>
</trkpt>
<trkpt lat="46.329710000" lon="-72.778210000">
<ele>0</ele>
<time>2026-09-04T07:23:18Z</time>
</trkpt>
<trkpt lat="46.329700000" lon="-72.776650000">
<ele>0</ele>
<time>2026-09-04T07:23:19Z</time>
</trkpt>
<trkpt lat="46.329690000" lon="-72.776280000">
<ele>0</ele>
<time>2026-09-04T07:23:20Z</time>
</trkpt>
<trkpt lat="46.329730000" lon="-72.775780000">
<ele>0</ele>
<time>2026-09-04T07:23:21Z</time>
</trkpt>
<trkpt lat="46.329880000" lon="-72.775200000">
<ele>0</ele>
<time>2026-09-04T07:23:22Z</time>
</trkpt>
<trkpt lat="46.330280000" lon="-72.774470000">
<ele>0</ele>
<time>2026-09-04T07:23:23Z</time>
</trkpt>
<trkpt lat="46.330510000" lon="-72.774160000">
<ele>0</ele>
<time>2026-09-04T07:23:24Z</time>
</trkpt>
<trkpt lat="46.330800000" lon="-72.773680000">
<ele>0</ele>
<time>2026-09-04T07:23:25Z</time>
</trkpt>
<trkpt lat="46.331090000" lon="-72.773090000">
<ele>0</ele>
<time>2026-09-04T07:23:26Z</time>
</trkpt>
<trkpt lat="46.331260000" lon="-72.772500000">
<ele>0</ele>
<time>2026-09-04T07:23:27Z</time>
</trkpt>
<trkpt lat="46.331300000" lon="-72.771700000">
<ele>0</ele>
<time>2026-09-04T07:23:28Z</time>
</trkpt>
<trkpt lat="46.331410000" lon="-72.771030000">
<ele>0</ele>
<time>2026-09-04T07:23:29Z</time>
</trkpt>
<trkpt lat="46.331480000" lon="-72.770740000">
<ele>0</ele>
<time>2026-09-04T07:23:30Z</time>
</trkpt>
<trkpt lat="46.331580000" lon="-72.770490000">
<ele>0</ele>
<time>2026-09-04T07:23:31Z</time>
</trkpt>
<trkpt lat="46.331750000" lon="-72.770200000">
<ele>0</ele>
<time>2026-09-04T07:23:32Z</time>
</trkpt>
<trkpt lat="46.332000000" lon="-72.769840000">
<ele>0</ele>
<time>2026-09-04T07:23:33Z</time>
</trkpt>
<trkpt lat="46.332630000" lon="-72.768840000">
<ele>0</ele>
<time>2026-09-04T07:23:34Z</time>
</trkpt>
<trkpt lat="46.333080000" lon="-72.768190000">
<ele>0</ele>
<time>2026-09-04T07:23:35Z</time>
</trkpt>
<trkpt lat="46.333350000" lon="-72.767890000">
<ele>0</ele>
<time>2026-09-04T07:23:36Z</time>
</trkpt>
<trkpt lat="46.333410000" lon="-72.767790000">
<ele>0</ele>
<time>2026-09-04T07:23:37Z</time>
</trkpt>
<trkpt lat="46.333410000" lon="-72.767650000">
<ele>0</ele>
<time>2026-09-04T07:23:38Z</time>
</trkpt>
<trkpt lat="46.333360000" lon="-72.767510000">
<ele>0</ele>
<time>2026-09-04T07:23:39Z</time>
</trkpt>
<trkpt lat="46.332760000" lon="-72.766700000">
<ele>0</ele>
<time>2026-09-04T07:23:40Z</time>
</trkpt>
<trkpt lat="46.332760000" lon="-72.766700000">
<ele>0</ele>
<time>2026-09-04T07:23:41Z</time>
</trkpt>
<trkpt lat="46.329050000" lon="-72.761710000">
<ele>0</ele>
<time>2026-09-04T07:23:42Z</time>
</trkpt>
<trkpt lat="46.328290000" lon="-72.760390000">
<ele>0</ele>
<time>2026-09-04T07:23:43Z</time>
</trkpt>
<trkpt lat="46.327570000" lon="-72.759040000">
<ele>0</ele>
<time>2026-09-04T07:23:44Z</time>
</trkpt>
<trkpt lat="46.326900000" lon="-72.757860000">
<ele>0</ele>
<time>2026-09-04T07:23:45Z</time>
</trkpt>
<trkpt lat="46.326560000" lon="-72.757110000">
<ele>0</ele>
<time>2026-09-04T07:23:46Z</time>
</trkpt>
<trkpt lat="46.326210000" lon="-72.756500000">
<ele>0</ele>
<time>2026-09-04T07:23:47Z</time>
</trkpt>
<trkpt lat="46.326010000" lon="-72.756230000">
<ele>0</ele>
<time>2026-09-04T07:23:48Z</time>
</trkpt>
<trkpt lat="46.325480000" lon="-72.755750000">
<ele>0</ele>
<time>2026-09-04T07:23:49Z</time>
</trkpt>
<trkpt lat="46.325280000" lon="-72.755620000">
<ele>0</ele>
<time>2026-09-04T07:23:50Z</time>
</trkpt>
<trkpt lat="46.325000000" lon="-72.755300000">
<ele>0</ele>
<time>2026-09-04T07:23:51Z</time>
</trkpt>
<trkpt lat="46.324580000" lon="-72.754790000">
<ele>0</ele>
<time>2026-09-04T07:23:52Z</time>
</trkpt>
<trkpt lat="46.324170000" lon="-72.754240000">
<ele>0</ele>
<time>2026-09-04T07:23:53Z</time>
</trkpt>
<trkpt lat="46.323590000" lon="-72.753400000">
<ele>0</ele>
<time>2026-09-04T07:23:54Z</time>
</trkpt>
<trkpt lat="46.322970000" lon="-72.752500000">
<ele>0</ele>
<time>2026-09-04T07:23:55Z</time>
</trkpt>
<trkpt lat="46.322340000" lon="-72.751480000">
<ele>0</ele>
<time>2026-09-04T07:23:56Z</time>
</trkpt>
<trkpt lat="46.322080000" lon="-72.751130000">
<ele>0</ele>
<time>2026-09-04T07:23:57Z</time>
</trkpt>
<trkpt lat="46.322010000" lon="-72.750880000">
<ele>0</ele>
<time>2026-09-04T07:23:58Z</time>
</trkpt>
<trkpt lat="46.321710000" lon="-72.750220000">
<ele>0</ele>
<time>2026-09-04T07:23:59Z</time>
</trkpt>
<trkpt lat="46.321490000" lon="-72.749760000">
<ele>0</ele>
<time>2026-09-04T07:24:00Z</time>
</trkpt>
<trkpt lat="46.321200000" lon="-72.749290000">
<ele>0</ele>
<time>2026-09-04T07:24:01Z</time>
</trkpt>
<trkpt lat="46.320890000" lon="-72.748860000">
<ele>0</ele>
<time>2026-09-04T07:24:02Z</time>
</trkpt>
<trkpt lat="46.320700000" lon="-72.748650000">
<ele>0</ele>
<time>2026-09-04T07:24:03Z</time>
</trkpt>
<trkpt lat="46.320470000" lon="-72.748500000">
<ele>0</ele>
<time>2026-09-04T07:24:04Z</time>
</trkpt>
<trkpt lat="46.320280000" lon="-72.748400000">
<ele>0</ele>
<time>2026-09-04T07:24:05Z</time>
</trkpt>
<trkpt lat="46.320050000" lon="-72.748220000">
<ele>0</ele>
<time>2026-09-04T07:24:06Z</time>
</trkpt>
<trkpt lat="46.319690000" lon="-72.747750000">
<ele>0</ele>
<time>2026-09-04T07:24:07Z</time>
</trkpt>
<trkpt lat="46.319360000" lon="-72.747180000">
<ele>0</ele>
<time>2026-09-04T07:24:08Z</time>
</trkpt>
<trkpt lat="46.318730000" lon="-72.745980000">
<ele>0</ele>
<time>2026-09-04T07:24:09Z</time>
</trkpt>
<trkpt lat="46.318430000" lon="-72.745480000">
<ele>0</ele>
<time>2026-09-04T07:24:10Z</time>
</trkpt>
<trkpt lat="46.317320000" lon="-72.744070000">
<ele>0</ele>
<time>2026-09-04T07:24:11Z</time>
</trkpt>
<trkpt lat="46.315970000" lon="-72.742060000">
<ele>0</ele>
<time>2026-09-04T07:24:12Z</time>
</trkpt>
<trkpt lat="46.315950000" lon="-72.742020000">
<ele>0</ele>
<time>2026-09-04T07:24:13Z</time>
</trkpt>
<trkpt lat="46.315950000" lon="-72.742020000">
<ele>0</ele>
<time>2026-09-04T07:24:14Z</time>
</trkpt>
<trkpt lat="46.315530000" lon="-72.741490000">
<ele>0</ele>
<time>2026-09-04T07:24:15Z</time>
</trkpt>
<trkpt lat="46.315340000" lon="-72.741230000">
<ele>0</ele>
<time>2026-09-04T07:24:16Z</time>
</trkpt>
<trkpt lat="46.314900000" lon="-72.740510000">
<ele>0</ele>
<time>2026-09-04T07:24:17Z</time>
</trkpt>
<trkpt lat="46.314560000" lon="-72.740010000">
<ele>0</ele>
<time>2026-09-04T07:24:18Z</time>
</trkpt>
<trkpt lat="46.313290000" lon="-72.738130000">
<ele>0</ele>
<time>2026-09-04T07:24:19Z</time>
</trkpt>
<trkpt lat="46.311550000" lon="-72.735580000">
<ele>0</ele>
<time>2026-09-04T07:24:20Z</time>
</trkpt>
<trkpt lat="46.311020000" lon="-72.735010000">
<ele>0</ele>
<time>2026-09-04T07:24:21Z</time>
</trkpt>
<trkpt lat="46.309870000" lon="-72.734070000">
<ele>0</ele>
<time>2026-09-04T07:24:22Z</time>
</trkpt>
<trkpt lat="46.307150000" lon="-72.731940000">
<ele>0</ele>
<time>2026-09-04T07:24:23Z</time>
</trkpt>
<trkpt lat="46.305140000" lon="-72.730350000">
<ele>0</ele>
<time>2026-09-04T07:24:24Z</time>
</trkpt>
<trkpt lat="46.303060000" lon="-72.728640000">
<ele>0</ele>
<time>2026-09-04T07:24:25Z</time>
</trkpt>
<trkpt lat="46.302260000" lon="-72.728010000">
<ele>0</ele>
<time>2026-09-04T07:24:26Z</time>
</trkpt>
<trkpt lat="46.302010000" lon="-72.727760000">
<ele>0</ele>
<time>2026-09-04T07:24:27Z</time>
</trkpt>
<trkpt lat="46.297760000" lon="-72.724260000">
<ele>0</ele>
<time>2026-09-04T07:24:28Z</time>
</trkpt>
<trkpt lat="46.297230000" lon="-72.723850000">
<ele>0</ele>
<time>2026-09-04T07:24:29Z</time>
</trkpt>
<trkpt lat="46.297010000" lon="-72.723800000">
<ele>0</ele>
<time>2026-09-04T07:24:30Z</time>
</trkpt>
<trkpt lat="46.296870000" lon="-72.723280000">
<ele>0</ele>
<time>2026-09-04T07:24:31Z</time>
</trkpt>
<trkpt lat="46.296870000" lon="-72.723280000">
<ele>0</ele>
<time>2026-09-04T07:24:32Z</time>
</trkpt>
<trkpt lat="46.296610000" lon="-72.722470000">
<ele>0</ele>
<time>2026-09-04T07:24:33Z</time>
</trkpt>
<trkpt lat="46.295760000" lon="-72.720420000">
<ele>0</ele>
<time>2026-09-04T07:24:34Z</time>
</trkpt>
<trkpt lat="46.295050000" lon="-72.718770000">
<ele>0</ele>
<time>2026-09-04T07:24:35Z</time>
</trkpt>
<trkpt lat="46.294600000" lon="-72.717690000">
<ele>0</ele>
<time>2026-09-04T07:24:36Z</time>
</trkpt>
<trkpt lat="46.294200000" lon="-72.716620000">
<ele>0</ele>
<time>2026-09-04T07:24:37Z</time>
</trkpt>
<trkpt lat="46.293930000" lon="-72.715790000">
<ele>0</ele>
<time>2026-09-04T07:24:38Z</time>
</trkpt>
<trkpt lat="46.293760000" lon="-72.715220000">
<ele>0</ele>
<time>2026-09-04T07:24:39Z</time>
</trkpt>
<trkpt lat="46.293760000" lon="-72.715220000">
<ele>0</ele>
<time>2026-09-04T07:24:40Z</time>
</trkpt>
<trkpt lat="46.291260000" lon="-72.706730000">
<ele>0</ele>
<time>2026-09-04T07:24:41Z</time>
</trkpt>
<trkpt lat="46.291110000" lon="-72.706290000">
<ele>0</ele>
<time>2026-09-04T07:24:42Z</time>
</trkpt>
<trkpt lat="46.290880000" lon="-72.705700000">
<ele>0</ele>
<time>2026-09-04T07:24:43Z</time>
</trkpt>
<trkpt lat="46.290010000" lon="-72.703550000">
<ele>0</ele>
<time>2026-09-04T07:24:44Z</time>
</trkpt>
<trkpt lat="46.288880000" lon="-72.700740000">
<ele>0</ele>
<time>2026-09-04T07:24:45Z</time>
</trkpt>
<trkpt lat="46.288680000" lon="-72.700240000">
<ele>0</ele>
<time>2026-09-04T07:24:46Z</time>
</trkpt>
<trkpt lat="46.288520000" lon="-72.699780000">
<ele>0</ele>
<time>2026-09-04T07:24:47Z</time>
</trkpt>
<trkpt lat="46.288050000" lon="-72.698240000">
<ele>0</ele>
<time>2026-09-04T07:24:48Z</time>
</trkpt>
<trkpt lat="46.287680000" lon="-72.697100000">
<ele>0</ele>
<time>2026-09-04T07:24:49Z</time>
</trkpt>
<trkpt lat="46.286960000" lon="-72.695110000">
<ele>0</ele>
<time>2026-09-04T07:24:50Z</time>
</trkpt>
<trkpt lat="46.286790000" lon="-72.694630000">
<ele>0</ele>
<time>2026-09-04T07:24:51Z</time>
</trkpt>
<trkpt lat="46.286700000" lon="-72.694290000">
<ele>0</ele>
<time>2026-09-04T07:24:52Z</time>
</trkpt>
<trkpt lat="46.286630000" lon="-72.693820000">
<ele>0</ele>
<time>2026-09-04T07:24:53Z</time>
</trkpt>
<trkpt lat="46.286610000" lon="-72.693380000">
<ele>0</ele>
<time>2026-09-04T07:24:54Z</time>
</trkpt>
<trkpt lat="46.286600000" lon="-72.692090000">
<ele>0</ele>
<time>2026-09-04T07:24:55Z</time>
</trkpt>
<trkpt lat="46.286530000" lon="-72.691230000">
<ele>0</ele>
<time>2026-09-04T07:24:56Z</time>
</trkpt>
<trkpt lat="46.286490000" lon="-72.690780000">
<ele>0</ele>
<time>2026-09-04T07:24:57Z</time>
</trkpt>
<trkpt lat="46.286670000" lon="-72.690700000">
<ele>0</ele>
<time>2026-09-04T07:24:58Z</time>
</trkpt>
<trkpt lat="46.286750000" lon="-72.690620000">
<ele>0</ele>
<time>2026-09-04T07:24:59Z</time>
</trkpt>
<trkpt lat="46.286850000" lon="-72.690510000">
<ele>0</ele>
<time>2026-09-04T07:25:00Z</time>
</trkpt>
<trkpt lat="46.287060000" lon="-72.690140000">
<ele>0</ele>
<time>2026-09-04T07:25:01Z</time>
</trkpt>
<trkpt lat="46.287060000" lon="-72.690140000">
<ele>0</ele>
<time>2026-09-04T07:25:02Z</time>
</trkpt>
<trkpt lat="46.287490000" lon="-72.689480000">
<ele>0</ele>
<time>2026-09-04T07:25:03Z</time>
</trkpt>
<trkpt lat="46.287690000" lon="-72.689140000">
<ele>0</ele>
<time>2026-09-04T07:25:04Z</time>
</trkpt>
<trkpt lat="46.287890000" lon="-72.688680000">
<ele>0</ele>
<time>2026-09-04T07:25:05Z</time>
</trkpt>
<trkpt lat="46.287930000" lon="-72.688530000">
<ele>0</ele>
<time>2026-09-04T07:25:06Z</time>
</trkpt>
<trkpt lat="46.287930000" lon="-72.688340000">
<ele>0</ele>
<time>2026-09-04T07:25:07Z</time>
</trkpt>
<trkpt lat="46.287860000" lon="-72.687780000">
<ele>0</ele>
<time>2026-09-04T07:25:08Z</time>
</trkpt>
<trkpt lat="46.287740000" lon="-72.687330000">
<ele>0</ele>
<time>2026-09-04T07:25:09Z</time>
</trkpt>
<trkpt lat="46.287420000" lon="-72.686340000">
<ele>0</ele>
<time>2026-09-04T07:25:10Z</time>
</trkpt>
<trkpt lat="46.287160000" lon="-72.685710000">
<ele>0</ele>
<time>2026-09-04T07:25:11Z</time>
</trkpt>
<trkpt lat="46.286540000" lon="-72.684060000">
<ele>0</ele>
<time>2026-09-04T07:25:12Z</time>
</trkpt>
<trkpt lat="46.286640000" lon="-72.683880000">
<ele>0</ele>
<time>2026-09-04T07:25:13Z</time>
</trkpt>
<trkpt lat="46.286800000" lon="-72.683350000">
<ele>0</ele>
<time>2026-09-04T07:25:14Z</time>
</trkpt>
<trkpt lat="46.286800000" lon="-72.683350000">
<ele>0</ele>
<time>2026-09-04T07:25:15Z</time>
</trkpt>
<trkpt lat="46.287000000" lon="-72.682730000">
<ele>0</ele>
<time>2026-09-04T07:25:16Z</time>
</trkpt>
<trkpt lat="46.287150000" lon="-72.682120000">
<ele>0</ele>
<time>2026-09-04T07:25:17Z</time>
</trkpt>
<trkpt lat="46.287570000" lon="-72.680520000">
<ele>0</ele>
<time>2026-09-04T07:25:18Z</time>
</trkpt>
<trkpt lat="46.287660000" lon="-72.680010000">
<ele>0</ele>
<time>2026-09-04T07:25:19Z</time>
</trkpt>
<trkpt lat="46.287760000" lon="-72.678880000">
<ele>0</ele>
<time>2026-09-04T07:25:20Z</time>
</trkpt>
<trkpt lat="46.287810000" lon="-72.678450000">
<ele>0</ele>
<time>2026-09-04T07:25:21Z</time>
</trkpt>
<trkpt lat="46.287940000" lon="-72.677810000">
<ele>0</ele>
<time>2026-09-04T07:25:22Z</time>
</trkpt>
<trkpt lat="46.288340000" lon="-72.676530000">
<ele>0</ele>
<time>2026-09-04T07:25:23Z</time>
</trkpt>
<trkpt lat="46.289080000" lon="-72.674480000">
<ele>0</ele>
<time>2026-09-04T07:25:24Z</time>
</trkpt>
<trkpt lat="46.289430000" lon="-72.673910000">
<ele>0</ele>
<time>2026-09-04T07:25:25Z</time>
</trkpt>
<trkpt lat="46.289430000" lon="-72.673910000">
<ele>0</ele>
<time>2026-09-04T07:25:26Z</time>
</trkpt>
<trkpt lat="46.289430000" lon="-72.673910000">
<ele>0</ele>
<time>2026-09-04T07:25:27Z</time>
</trkpt>
<trkpt lat="46.289430000" lon="-72.673910000">
<ele>0</ele>
<time>2026-09-04T07:25:28Z</time>
</trkpt>
<trkpt lat="46.289550000" lon="-72.673740000">
<ele>0</ele>
<time>2026-09-04T07:25:29Z</time>
</trkpt>
</trkseg>
</trk>
</gpx>
